Terminal Aerodrome Forecast
Issued by NWS Wilmington, OH

Current Version | Previous Version | Graphics & Text | Print | Product List | Glossary On
Versions: 1 2 3 4 5 6 7 8 9 10 11 12 13 14 15 16 17 18 19 20 21 22
000
FTUS41 KILN 242055 AAA
TAFCVG
TAF AMD
KCVG 242055Z 2421/2524 21006KT P6SM SCT250
     FM250100 18004KT P6SM SCT250
     FM250600 18004KT P6SM BKN070
     FM251200 19006KT P6SM VCSH BKN050
     FM251800 21008KT P6SM VCTS BKN035CB=

USA.gov is the U.S. government's official web portal to all federal, state and local government web resources and services.